Latest Weather Observations for Cerberus

IDV60801

Issued at 9:32 pm EST Tuesday 23 July 2024 (issued every 10 minutes, with the page automatically refreshed every 10 minutes)

About weather observations | Map of weather stations | Latest weather observations for VIC | Other Formats
Station Details ID: 086361 Name: CERBERUS Lat: -38.36 Lon: 145.18 Height: 12.69 m
Data from the previous 72 hours. | See also: Recent months at Cerberus
Date/Time
EST
Temp
°C
App
Temp
°C
Dew
Point
°C
Rel
Hum
%
Delta-T
°C
Wind Press
QNH
hPa
Press
MSL
hPa
Rain since
9am
mm
Dir  Spd
km/h
Gust
km/h
Spd
kts
Gust
kts
23/09:30pm 13.1 10.0 3.7 53 4.2 N 9 17 5 9 1019.9 1019.9 0.0
23/09:00pm 13.4 10.0 3.8 52 4.3 N 11 22 6 12 1020.0 1020.0 0.0
23/08:30pm 13.8 10.0 3.9 51 4.5 N 13 28 7 15 1019.9 1019.9 0.0
23/08:00pm 13.9 9.8 4.2 52 4.4 N 15 28 8 15 1020.0 1020.0 0.0
23/07:30pm 13.9 10.3 4.8 54 4.2 N 13 26 7 14 1020.1 1020.1 0.0
23/07:00pm 14.0 10.4 5.1 55 4.1 N 13 20 7 11 1020.2 1020.2 0.0
23/06:30pm 14.2 10.6 5.0 54 4.3 N 13 24 7 13 1020.3 1020.3 0.0
23/06:00pm 13.9 11.1 5.0 55 4.1 N 9 17 5 9 1020.2 1020.2 0.0
23/05:30pm 14.2 11.7 4.8 53 4.4 N 7 15 4 8 1020.2 1020.2 0.0
23/05:00pm 14.9 11.6 4.3 49 4.9 NNW 11 19 6 10 1020.2 1020.2 0.0
23/04:30pm 16.2 13.0 5.2 48 5.2 NNW 11 24 6 13 1020.0 1020.0 0.0
23/04:00pm 16.6 13.4 4.9 46 5.5 N 11 22 6 12 1020.0 1020.0 0.0
23/03:30pm 16.8 12.7 4.2 43 5.9 N 15 30 8 16 1020.0 1020.0 0.0
23/03:00pm 17.2 12.3 4.2 42 6.1 NNW 19 33 10 18 1020.0 1020.0 0.0
23/02:30pm 17.3 11.7 3.6 40 6.4 NNW 22 35 12 19 1019.9 1019.9 0.0
23/02:00pm 17.7 13.5 3.9 40 6.5 NNW 15 30 8 16 1020.4 1020.4 0.0
23/01:30pm 17.5 13.3 3.8 40 6.4 NNW 15 28 8 15 1020.7 1020.7 0.0
23/01:00pm 17.3 12.9 4.9 44 5.9 NNW 17 39 9 21 1021.1 1021.1 0.0
23/12:30pm 16.6 11.9 3.3 41 6.1 NNW 17 28 9 15 1021.5 1021.5 0.0
23/12:00pm 16.6 12.2 4.6 45 5.6 NNW 17 32 9 17 1022.1 1022.1 0.0
23/11:30am 15.5 10.9 3.6 45 5.5 NNW 17 30 9 16 1022.4 1022.4 0.0
23/11:00am 15.3 10.8 4.4 48 5.0 NNW 17 37 9 20 1022.7 1022.7 0.0
23/10:30am 14.4 10.4 4.7 52 4.5 N 15 30 8 16 1022.9 1022.9 0.0
23/10:00am 13.4 9.8 5.1 57 3.8 NNW 13 22 7 12 1022.9 1022.9 0.0
23/09:30am 13.0 9.7 4.7 57 3.8 N 11 22 6 12 1022.9 1022.9 0.0
23/09:00am 12.9 10.2 5.6 61 3.4 N 9 17 5 9 1022.9 1022.9 0.0
23/08:30am 12.8 10.1 5.5 61 3.4 NNW 9 19 5 10 1022.8 1022.8 0.0
23/08:00am 12.6 10.0 6.0 64 3.1 N 9 17 5 9 1022.8 1022.8 0.0
23/07:30am 13.0 10.4 5.9 62 3.3 NNW 9 17 5 9 1022.7 1022.7 0.0
23/07:00am 13.3 10.4 6.4 63 3.3 NNW 11 20 6 11 1022.6 1022.6 0.0
23/06:30am 13.6 10.7 6.7 63 3.3 NNW 11 20 6 11 1022.4 1022.4 0.0
23/06:00am 13.9 11.5 7.0 63 3.3 NNW 9 17 5 9 1022.2 1022.2 0.0
23/05:30am 13.0 11.0 7.2 68 2.8 NNW 7 15 4 8 1021.9 1021.9 0.0
23/05:00am 12.9 10.9 7.1 68 2.8 NNW 7 17 4 9 1021.9 1021.9 0.0
23/04:30am 13.1 10.8 7.3 68 2.8 NNW 9 17 5 9 1021.8 1021.8 0.0
23/04:00am 13.5 10.8 7.5 67 2.9 NNW 11 19 6 10 1021.7 1021.7 0.0
23/03:30am 13.2 10.9 7.6 69 2.7 NNW 9 22 5 12 1021.7 1021.7 0.0
23/03:00am 13.5 11.0 8.1 70 2.7 NNW 11 24 6 13 1021.8 1021.8 0.0
23/02:30am 13.2 11.1 8.3 72 2.4 NNW 9 15 5 8 1021.9 1021.9 0.0
23/02:00am 13.4 10.9 8.3 71 2.5 NNW 11 17 6 9 1022.0 1022.0 0.0
23/01:30am 13.6 10.7 8.2 70 2.7 NNW 13 22 7 12 1022.0 1022.0 0.0
23/01:00am 14.3 11.9 8.5 68 2.9 NNW 11 22 6 12 1021.9 1021.9 0.0
23/12:30am 14.3 12.3 8.7 69 2.8 N 9 15 5 8 1022.0 1022.0 0.0
23/12:00am 14.5 12.2 8.9 69 2.8 N 11 20 6 11 1022.1 1022.1 0.0
 
Date/Time
EST
Temp
°C
App
Temp
°C
Dew
Point
°C
Rel
Hum
%
Delta-T
°C
Wind Press
QNH
hPa
Press
MSL
hPa
Rain since
9am
mm
Dir  Spd
km/h
Gust
km/h
Spd
kts
Gust
kts
22/11:30pm 14.5 12.2 8.9 69 2.8 N 11 19 6 10 1022.3 1022.3 0.0
22/11:00pm 14.6 12.7 9.2 70 2.7 NNW 9 17 5 9 1022.4 1022.4 0.0
22/10:30pm 14.4 11.8 9.2 71 2.7 NNW 13 24 7 13 1022.4 1022.4 0.0
22/10:00pm 14.4 11.8 9.2 71 2.6 NNW 13 19 7 10 1022.4 1022.4 0.0
22/09:30pm 14.6 12.0 9.4 71 2.7 NNW 13 24 7 13 1022.4 1022.4 0.0
22/09:00pm 14.4 11.5 9.6 73 2.5 NNW 15 26 8 14 1022.3 1022.3 0.0
22/08:30pm 14.6 11.7 9.6 72 2.6 NNW 15 28 8 15 1022.3 1022.3 0.0
22/08:00pm 14.2 12.1 9.6 74 2.4 N 11 22 6 12 1022.1 1022.1 0.0
22/07:30pm 13.9 11.9 10.1 78 2.0 N 11 20 6 11 1021.8 1021.8 0.0
22/07:00pm 13.2 11.7 10.6 84 1.4 NNW 9 19 5 10 1021.8 1021.8 0.0
22/06:30pm 14.3 12.2 9.7 74 2.4 N 11 19 6 10 1021.5 1021.5 0.0
22/06:00pm 14.3 12.1 9.5 73 2.5 NNW 11 22 6 12 1021.2 1021.2 0.0
22/05:30pm 14.3 12.5 9.5 73 2.5 NW 9 20 5 11 1021.1 1021.1 0.0
22/05:00pm 14.4 11.9 9.8 74 2.4 NW 13 20 7 11 1020.9 1020.9 0.0
22/04:30pm 15.2 13.0 9.3 68 3.0 NW 11 20 6 11 1020.7 1020.7 0.0
22/04:00pm 15.9 13.7 9.3 65 3.4 NW 11 22 6 12 1020.5 1020.5 0.0
22/03:30pm 15.9 14.6 9.8 67 3.2 NNW 7 15 4 8 1020.3 1020.3 0.0
22/03:00pm 16.6 14.1 9.8 64 3.6 NNW 13 20 7 11 1020.2 1020.2 0.0
22/02:30pm 15.9 13.4 9.6 66 3.3 NW 13 24 7 13 1020.2 1020.2 0.0
22/02:00pm 15.9 12.9 9.3 65 3.4 NW 15 26 8 14 1020.2 1020.2 0.0
22/01:30pm 15.2 13.2 10.0 71 2.7 NNW 11 19 6 10 1020.3 1020.3 0.0
22/01:00pm 14.9 12.2 9.1 68 3.0 NW 13 22 7 12 1020.6 1020.6 0.0
22/12:30pm 15.3 12.6 9.0 66 3.2 NNW 13 26 7 14 1020.7 1020.7 0.0
22/12:00pm 15.2 11.8 9.1 67 3.1 NNW 17 30 9 16 1021.0 1021.0 0.0
22/11:30am 15.8 12.0 9.9 68 3.1 NNW 20 35 11 19 1021.1 1021.1 0.0
22/11:00am 14.9 11.0 8.8 67 3.1 NNW 19 33 10 18 1021.2 1021.2 0.0
22/10:30am 14.6 10.2 9.0 69 2.9 NNW 22 35 12 19 1020.8 1020.8 0.0
22/10:00am 14.2 10.7 8.8 70 2.7 NNW 17 30 9 16 1020.9 1020.9 0.0
22/09:30am 13.9 10.8 8.9 72 2.5 NNW 15 22 8 12 1020.8 1020.8 0.0
22/09:00am 12.7 9.2 8.8 77 1.9 NNW 17 28 9 15 1020.6 1020.6 1.8
22/08:30am 12.6 10.2 8.5 76 2.0 NNW 11 24 6 13 1020.4 1020.4 1.8
22/08:00am 12.6 9.4 8.5 76 2.0 NNW 15 28 8 15 1019.9 1019.9 1.8
22/07:30am 12.1 9.3 8.4 78 1.8 NNW 13 22 7 12 1019.6 1019.6 1.8
22/07:00am 11.7 9.2 8.4 80 1.6 NNW 11 19 6 10 1019.5 1019.5 1.8
22/06:30am 11.7 9.3 8.6 81 1.5 NNW 11 19 6 10 1019.3 1019.3 1.8
22/06:00am 11.7 9.3 8.6 81 1.5 N 11 17 6 9 1019.0 1019.0 1.8
22/05:30am 11.8 9.4 8.6 81 1.6 NNW 11 19 6 10 1018.9 1018.9 1.8
22/05:00am 11.8 9.5 9.0 83 1.4 N 11 20 6 11 1018.8 1018.8 1.8
22/04:30am 11.6 9.0 9.2 85 1.2 NNW 13 22 7 12 1018.6 1018.6 1.8
22/04:00am 11.6 9.0 9.2 85 1.2 NNW 13 20 7 11 1018.5 1018.5 1.8
22/03:30am 11.7 9.5 9.3 85 1.2 NNW 11 20 6 11 1018.5 1018.5 1.8
22/03:00am 11.8 9.2 9.2 84 1.3 NNW 13 22 7 12 1018.4 1018.4 1.6
22/02:30am 11.7 9.4 9.1 84 1.3 NNW 11 20 6 11 1018.5 1018.5 1.6
22/02:00am 11.9 9.6 8.9 82 1.5 NNW 11 20 6 11 1018.5 1018.5 1.2
22/01:30am 11.7 9.4 9.1 84 1.3 NNW 11 20 6 11 1018.4 1018.4 1.2
22/01:00am 11.6 9.7 9.2 85 1.2 NNW 9 17 5 9 1018.6 1018.6 1.2
22/12:30am 11.7 9.8 9.1 84 1.3 NNW 9 20 5 11 1018.6 1018.6 0.8
22/12:00am 12.3 9.6 8.8 79 1.7 NNW 13 20 7 11 1018.6 1018.6 0.2
 
Date/Time
EST
Temp
°C
App
Temp
°C
Dew
Point
°C
Rel
Hum
%
Delta-T
°C
Wind Press
QNH
hPa
Press
MSL
hPa
Rain since
9am
mm
Dir  Spd
km/h
Gust
km/h
Spd
kts
Gust
kts
21/11:30pm 12.4 9.2 8.5 77 1.9 NNW 15 24 8 13 1018.6 1018.6 0.0
21/11:00pm 12.3 9.5 8.6 78 1.8 NNW 13 24 7 13 1018.3 1018.3 0.0
21/10:30pm 12.1 9.0 8.8 80 1.6 N 15 26 8 14 1018.4 1018.4 0.0
21/10:00pm 12.2 9.1 8.9 80 1.6 NNW 15 26 8 14 1018.3 1018.3 0.0
21/09:30pm 12.3 9.1 8.6 78 1.8 NNW 15 22 8 12 1018.3 1018.3 0.0
21/09:00pm 12.6 9.0 8.3 75 2.1 NNW 17 32 9 17 1018.2 1018.2 0.0
21/08:30pm 12.6 8.9 8.1 74 2.2 NNW 17 33 9 18 1018.2 1018.2 0.0
21/08:00pm 12.5 8.8 8.0 74 2.2 NNW 17 30 9 16 1018.1 1018.1 0.0
21/07:30pm 12.4 9.1 7.9 74 2.2 N 15 26 8 14 1018.0 1018.0 0.0
21/07:00pm 12.2 9.2 7.7 74 2.2 NNW 13 22 7 12 1017.8 1017.8 0.0
21/06:30pm 12.5 9.5 7.6 72 2.4 NNW 13 22 7 12 1017.8 1017.8 0.0
21/06:00pm 12.6 9.1 7.3 70 2.6 NNW 15 24 8 13 1017.5 1017.5 0.0
21/05:30pm 13.0 9.5 7.2 68 2.8 NNW 15 22 8 12 1017.2 1017.2 0.0
21/05:00pm 12.9 9.4 7.4 69 2.7 NNW 15 26 8 14 1017.1 1017.1 0.0
21/04:30pm 13.3 9.9 7.7 69 2.8 NNW 15 28 8 15 1016.9 1016.9 0.0
21/04:00pm 14.0 11.9 8.2 68 2.9 NNW 9 19 5 10 1016.7 1016.7 0.0
21/03:30pm 14.2 12.1 8.2 67 3.0 NNW 9 15 5 8 1016.5 1016.5 0.0
21/03:00pm 14.3 11.0 8.0 66 3.1 NW 15 24 8 13 1016.4 1016.4 0.0
21/02:30pm 15.2 11.0 8.2 63 3.5 NW 20 30 11 16 1016.2 1016.2 0.0
21/02:00pm 14.9 11.0 8.6 66 3.2 WNW 19 28 10 15 1016.1 1016.1 0.0
21/01:30pm 14.9 11.0 8.8 67 3.1 NW 19 30 10 16 1016.2 1016.2 0.0
21/01:00pm 14.3 11.1 8.5 68 2.9 NW 15 28 8 15 1016.4 1016.4 0.0
21/12:30pm 13.3 10.4 8.2 71 2.5 NNW 13 20 7 11 1016.8 1016.8 0.0
21/12:00pm 14.2 10.4 9.0 71 2.6 NW 19 30 10 16 1017.1 1017.1 0.0
21/11:30am 13.0 9.4 8.3 73 2.3 NW 17 26 9 14 1017.3 1017.3 0.0
21/11:00am 11.9 9.1 8.6 80 1.6 NNW 13 22 7 12 1017.6 1017.6 0.0
21/10:30am 10.5 8.0 8.4 87 1.0 NNW 11 20 6 11 1017.8 1017.8 0.0
21/10:00am 10.4 7.4 7.6 83 1.3 NNW 13 22 7 12 1017.7 1017.7 0.0
21/09:30am 11.3 8.4 8.0 80 1.6 NW 13 20 7 11 1017.3 1017.3 0.0
21/09:00am 10.8 8.2 7.7 81 1.5 NNW 11 19 6 10 1017.0 1017.0 9.0
21/08:30am 9.6 7.2 6.9 83 1.3 NNW 9 13 5 7 1016.8 1016.8 9.0
21/08:00am 8.9 6.8 6.7 86 1.0 NNW 7 13 4 7 1016.8 1016.8 9.0
21/07:30am 8.6 6.5 6.6 87 0.9 NW 7 13 4 7 1016.6 1016.6 9.0
21/07:00am 8.5 6.5 6.3 86 1.0 NNW 6 11 3 6 1016.3 1016.3 9.0
21/06:30am 8.8 5.9 6.3 84 1.1 NW 11 17 6 9 1016.1 1016.1 9.0
21/06:00am 8.7 5.7 6.2 84 1.1 NW 11 22 6 12 1016.1 1016.1 9.0
21/05:30am 9.0 5.7 6.3 83 1.2 NW 13 19 7 10 1015.7 1015.7 9.0
21/05:00am 9.2 5.9 6.6 84 1.2 NW 13 20 7 11 1015.6 1015.6 9.0
21/04:30am 8.8 5.9 6.4 85 1.1 NW 11 15 6 8 1015.5 1015.5 9.0
21/04:00am 8.9 5.6 6.3 84 1.2 NW 13 20 7 11 1015.5 1015.5 9.0
21/03:30am 9.1 5.7 6.0 81 1.4 WNW 13 20 7 11 1015.4 1015.4 9.0
21/03:00am 9.3 5.5 5.9 79 1.6 WNW 15 28 8 15 1015.2 1015.2 9.0
21/02:30am 9.3 5.9 5.7 78 1.6 NW 13 20 7 11 1015.1 1015.1 9.0
21/02:00am 9.8 6.0 6.0 77 1.7 WNW 15 26 8 14 1014.7 1014.7 9.0
21/01:30am 9.7 6.6 5.5 75 1.9 WNW 11 19 6 10 1014.3 1014.3 9.0
21/01:00am 9.7 6.3 3.9 67 2.5 W 11 20 6 11 1014.0 1014.0 9.0
21/12:30am 9.6 6.2 4.2 69 2.4 W 11 19 6 10 1013.7 1013.7 9.0
21/12:00am 10.1 6.6 5.5 73 2.1 W 13 17 7 9 1013.3 1013.4 9.0
 
Date/Time
EST
Temp
°C
App
Temp
°C
Dew
Point
°C
Rel
Hum
%
Delta-T
°C
Wind Press
QNH
hPa
Press
MSL
hPa
Rain since
9am
mm
Dir  Spd
km/h
Gust
km/h
Spd
kts
Gust
kts
20/11:30pm 10.2 7.6 6.2 76 1.9 WNW 9 15 5 8 1013.1 1013.2 9.0
20/11:00pm 10.2 5.6 6.4 77 1.8 WSW 20 37 11 20 1012.6 1012.7 9.0
20/10:30pm 10.0 5.1 7.1 82 1.4 WSW 22 37 12 20 1012.1 1012.2 9.0
20/10:00pm 10.1 4.4 8.2 88 0.9 WSW 28 46 15 25 1011.5 1011.6 8.6

Other formats

Comma delimited format used in spreadsheet applications
http://www.bom.gov.au/fwo/IDV60801/IDV60801.94898.axf

JavaScript Object Notation format (JSON) in row-major order
http://www.bom.gov.au/fwo/IDV60801/IDV60801.94898.json

Data quality

Most of these data are generated automatically and are frequently updated. Quality checks on data are not normally performed. It is possible for incorrect values to appear. Refer to information at About Latest Weather Observations and please check the disclaimer before using these data.